sensor_id;sensor_type;location;lat;lon;timestamp;P1;durP1;ratioP1;P2;durP2;ratioP2
8458;SDS011;4266;48.816;9.154;2023-02-16T00:00:59;31.87;;;22.60;;
8458;SDS011;4266;48.816;9.154;2023-02-16T00:03:25;31.37;;;21.47;;
8458;SDS011;4266;48.816;9.154;2023-02-16T00:05:50;37.00;;;21.27;;
8458;SDS011;4266;48.816;9.154;2023-02-16T00:08:16;44.37;;;25.10;;
8458;SDS011;4266;48.816;9.154;2023-02-16T00:10:42;44.40;;;25.27;;
8458;SDS011;4266;48.816;9.154;2023-02-16T00:13:20;51.40;;;25.00;;
8458;SDS011;4266;48.816;9.154;2023-02-16T00:16:02;40.03;;;22.57;;
8458;SDS011;4266;48.816;9.154;2023-02-16T00:18:28;39.17;;;20.57;;
8458;SDS011;4266;48.816;9.154;2023-02-16T00:20:54;31.50;;;20.73;;
8458;SDS011;4266;48.816;9.154;2023-02-16T00:23:20;31.97;;;20.77;;
8458;SDS011;4266;48.816;9.154;2023-02-16T00:25:45;29.17;;;19.63;;
8458;SDS011;4266;48.816;9.154;2023-02-16T00:28:12;33.03;;;20.23;;
8458;SDS011;4266;48.816;9.154;2023-02-16T00:30:37;31.07;;;19.90;;
8458;SDS011;4266;48.816;9.154;2023-02-16T00:33:07;27.73;;;18.73;;
8458;SDS011;4266;48.816;9.154;2023-02-16T00:35:29;25.90;;;19.03;;
8458;SDS011;4266;48.816;9.154;2023-02-16T00:37:56;29.57;;;20.07;;
8458;SDS011;4266;48.816;9.154;2023-02-16T00:40:21;28.43;;;18.80;;
8458;SDS011;4266;48.816;9.154;2023-02-16T00:42:47;29.33;;;19.20;;
8458;SDS011;4266;48.816;9.154;2023-02-16T00:45:14;26.43;;;18.60;;
8458;SDS011;4266;48.816;9.154;2023-02-16T00:47:40;34.77;;;19.07;;
8458;SDS011;4266;48.816;9.154;2023-02-16T00:50:13;29.93;;;18.93;;
8458;SDS011;4266;48.816;9.154;2023-02-16T00:52:38;25.97;;;17.97;;
8458;SDS011;4266;48.816;9.154;2023-02-16T00:55:06;29.23;;;18.33;;
8458;SDS011;4266;48.816;9.154;2023-02-16T00:57:31;28.17;;;18.03;;
8458;SDS011;4266;48.816;9.154;2023-02-16T00:59:59;26.80;;;18.60;;
8458;SDS011;4266;48.816;9.154;2023-02-16T01:02:22;26.67;;;18.27;;
8458;SDS011;4266;48.816;9.154;2023-02-16T01:04:49;29.90;;;19.27;;
8458;SDS011;4266;48.816;9.154;2023-02-16T01:07:15;25.57;;;19.03;;
8458;SDS011;4266;48.816;9.154;2023-02-16T01:09:47;24.40;;;17.40;;
8458;SDS011;4266;48.816;9.154;2023-02-16T01:12:19;25.53;;;17.83;;
8458;SDS011;4266;48.816;9.154;2023-02-16T01:14:46;24.37;;;18.30;;
8458;SDS011;4266;48.816;9.154;2023-02-16T01:17:10;29.50;;;17.90;;
8458;SDS011;4266;48.816;9.154;2023-02-16T01:19:36;27.10;;;17.80;;
8458;SDS011;4266;48.816;9.154;2023-02-16T01:22:02;29.00;;;19.47;;
8458;SDS011;4266;48.816;9.154;2023-02-16T01:24:28;28.37;;;18.47;;
8458;SDS011;4266;48.816;9.154;2023-02-16T01:26:53;30.67;;;20.63;;
8458;SDS011;4266;48.816;9.154;2023-02-16T01:29:20;31.73;;;20.13;;
8458;SDS011;4266;48.816;9.154;2023-02-16T01:31:45;33.57;;;20.47;;
8458;SDS011;4266;48.816;9.154;2023-02-16T01:34:11;28.23;;;19.87;;
8458;SDS011;4266;48.816;9.154;2023-02-16T01:36:38;28.47;;;18.77;;
8458;SDS011;4266;48.816;9.154;2023-02-16T01:39:03;27.87;;;19.30;;
8458;SDS011;4266;48.816;9.154;2023-02-16T01:44:35;29.67;;;17.47;;
8458;SDS011;4266;48.816;9.154;2023-02-16T01:47:18;26.77;;;16.47;;
8458;SDS011;4266;48.816;9.154;2023-02-16T01:49:57;23.57;;;17.00;;
8458;SDS011;4266;48.816;9.154;2023-02-16T01:54:55;21.43;;;16.87;;
8458;SDS011;4266;48.816;9.154;2023-02-16T01:57:32;20.33;;;16.37;;
8458;SDS011;4266;48.816;9.154;2023-02-16T02:00:00;20.30;;;15.23;;
8458;SDS011;4266;48.816;9.154;2023-02-16T02:02:25;21.83;;;15.97;;
8458;SDS011;4266;48.816;9.154;2023-02-16T02:04:51;27.53;;;15.83;;
8458;SDS011;4266;48.816;9.154;2023-02-16T02:07:30;22.60;;;16.60;;
8458;SDS011;4266;48.816;9.154;2023-02-16T02:10:00;23.47;;;15.17;;
8458;SDS011;4266;48.816;9.154;2023-02-16T02:12:27;24.53;;;15.93;;
8458;SDS011;4266;48.816;9.154;2023-02-16T02:14:52;22.53;;;15.93;;
8458;SDS011;4266;48.816;9.154;2023-02-16T02:17:19;18.27;;;14.60;;
8458;SDS011;4266;48.816;9.154;2023-02-16T02:19:53;21.37;;;14.80;;
8458;SDS011;4266;48.816;9.154;2023-02-16T02:22:47;20.43;;;14.37;;
8458;SDS011;4266;48.816;9.154;2023-02-16T02:28:17;20.47;;;16.13;;
8458;SDS011;4266;48.816;9.154;2023-02-16T02:33:21;23.70;;;17.67;;
8458;SDS011;4266;48.816;9.154;2023-02-16T02:35:48;24.80;;;17.63;;
8458;SDS011;4266;48.816;9.154;2023-02-16T02:38:23;23.40;;;16.90;;
8458;SDS011;4266;48.816;9.154;2023-02-16T02:43:22;26.10;;;17.03;;
8458;SDS011;4266;48.816;9.154;2023-02-16T02:45:50;23.77;;;17.23;;
8458;SDS011;4266;48.816;9.154;2023-02-16T02:48:20;22.57;;;17.70;;
8458;SDS011;4266;48.816;9.154;2023-02-16T02:50:47;26.07;;;17.13;;
8458;SDS011;4266;48.816;9.154;2023-02-16T02:53:34;22.53;;;16.50;;
8458;SDS011;4266;48.816;9.154;2023-02-16T02:55:58;26.23;;;17.17;;
8458;SDS011;4266;48.816;9.154;2023-02-16T02:58:31;22.80;;;17.00;;
8458;SDS011;4266;48.816;9.154;2023-02-16T03:01:02;27.40;;;18.20;;
8458;SDS011;4266;48.816;9.154;2023-02-16T03:03:30;25.27;;;17.77;;
8458;SDS011;4266;48.816;9.154;2023-02-16T03:05:58;29.33;;;18.10;;
8458;SDS011;4266;48.816;9.154;2023-02-16T03:08:28;25.33;;;16.73;;
8458;SDS011;4266;48.816;9.154;2023-02-16T03:10:54;23.07;;;16.50;;
8458;SDS011;4266;48.816;9.154;2023-02-16T03:13:27;26.27;;;17.00;;
8458;SDS011;4266;48.816;9.154;2023-02-16T03:15:51;24.93;;;18.33;;
8458;SDS011;4266;48.816;9.154;2023-02-16T03:18:17;24.27;;;17.57;;
8458;SDS011;4266;48.816;9.154;2023-02-16T03:20:49;24.73;;;17.27;;
8458;SDS011;4266;48.816;9.154;2023-02-16T03:23:21;24.57;;;17.93;;
8458;SDS011;4266;48.816;9.154;2023-02-16T03:25:53;30.63;;;19.07;;
8458;SDS011;4266;48.816;9.154;2023-02-16T03:28:26;23.10;;;17.17;;
8458;SDS011;4266;48.816;9.154;2023-02-16T03:30:57;27.73;;;17.17;;
8458;SDS011;4266;48.816;9.154;2023-02-16T03:33:22;25.17;;;17.40;;
8458;SDS011;4266;48.816;9.154;2023-02-16T03:35:48;27.17;;;19.27;;
8458;SDS011;4266;48.816;9.154;2023-02-16T03:38:14;23.53;;;17.67;;
8458;SDS011;4266;48.816;9.154;2023-02-16T03:40:39;30.10;;;17.43;;
8458;SDS011;4266;48.816;9.154;2023-02-16T03:43:06;26.30;;;19.00;;
8458;SDS011;4266;48.816;9.154;2023-02-16T03:45:31;32.23;;;19.90;;
8458;SDS011;4266;48.816;9.154;2023-02-16T03:47:56;24.37;;;17.23;;
8458;SDS011;4266;48.816;9.154;2023-02-16T03:50:22;28.73;;;17.77;;
8458;SDS011;4266;48.816;9.154;2023-02-16T03:52:48;25.40;;;17.77;;
8458;SDS011;4266;48.816;9.154;2023-02-16T03:55:13;26.90;;;17.23;;
8458;SDS011;4266;48.816;9.154;2023-02-16T03:57:39;26.43;;;17.27;;
8458;SDS011;4266;48.816;9.154;2023-02-16T04:00:05;26.00;;;16.77;;
8458;SDS011;4266;48.816;9.154;2023-02-16T04:02:31;25.83;;;16.43;;
8458;SDS011;4266;48.816;9.154;2023-02-16T04:04:57;22.50;;;17.53;;
8458;SDS011;4266;48.816;9.154;2023-02-16T04:07:23;22.20;;;16.97;;
8458;SDS011;4266;48.816;9.154;2023-02-16T04:09:49;24.80;;;17.60;;
8458;SDS011;4266;48.816;9.154;2023-02-16T04:12:14;21.90;;;15.67;;
8458;SDS011;4266;48.816;9.154;2023-02-16T04:14:46;21.23;;;17.50;;
8458;SDS011;4266;48.816;9.154;2023-02-16T04:17:12;22.77;;;16.77;;
8458;SDS011;4266;48.816;9.154;2023-02-16T04:19:37;25.93;;;16.77;;
8458;SDS011;4266;48.816;9.154;2023-02-16T04:22:03;25.03;;;16.77;;
8458;SDS011;4266;48.816;9.154;2023-02-16T04:24:29;24.87;;;17.53;;
8458;SDS011;4266;48.816;9.154;2023-02-16T04:26:54;23.80;;;16.47;;
8458;SDS011;4266;48.816;9.154;2023-02-16T04:29:20;22.07;;;17.57;;
8458;SDS011;4266;48.816;9.154;2023-02-16T04:31:46;21.30;;;16.27;;
8458;SDS011;4266;48.816;9.154;2023-02-16T04:34:12;21.77;;;16.83;;
8458;SDS011;4266;48.816;9.154;2023-02-16T04:36:38;22.57;;;16.43;;
8458;SDS011;4266;48.816;9.154;2023-02-16T04:39:03;21.87;;;16.73;;
8458;SDS011;4266;48.816;9.154;2023-02-16T04:41:29;22.43;;;16.80;;
8458;SDS011;4266;48.816;9.154;2023-02-16T04:43:55;22.50;;;17.13;;
8458;SDS011;4266;48.816;9.154;2023-02-16T04:46:21;26.37;;;17.47;;
8458;SDS011;4266;48.816;9.154;2023-02-16T04:48:46;22.97;;;16.77;;
8458;SDS011;4266;48.816;9.154;2023-02-16T04:51:12;24.07;;;17.37;;
8458;SDS011;4266;48.816;9.154;2023-02-16T04:53:38;22.50;;;17.27;;
8458;SDS011;4266;48.816;9.154;2023-02-16T04:56:03;25.37;;;17.30;;
8458;SDS011;4266;48.816;9.154;2023-02-16T04:58:29;22.37;;;16.63;;
8458;SDS011;4266;48.816;9.154;2023-02-16T05:00:55;24.77;;;17.00;;
8458;SDS011;4266;48.816;9.154;2023-02-16T05:03:21;24.03;;;16.20;;
8458;SDS011;4266;48.816;9.154;2023-02-16T05:05:46;23.10;;;16.97;;
8458;SDS011;4266;48.816;9.154;2023-02-16T05:08:13;25.03;;;17.17;;
8458;SDS011;4266;48.816;9.154;2023-02-16T05:10:38;22.57;;;16.77;;
8458;SDS011;4266;48.816;9.154;2023-02-16T05:13:05;22.97;;;17.57;;
8458;SDS011;4266;48.816;9.154;2023-02-16T05:15:37;26.60;;;16.80;;
8458;SDS011;4266;48.816;9.154;2023-02-16T05:18:03;25.00;;;17.67;;
8458;SDS011;4266;48.816;9.154;2023-02-16T05:20:28;28.20;;;16.63;;
8458;SDS011;4266;48.816;9.154;2023-02-16T05:23:00;26.77;;;17.00;;
8458;SDS011;4266;48.816;9.154;2023-02-16T05:25:26;26.07;;;16.67;;
8458;SDS011;4266;48.816;9.154;2023-02-16T05:27:52;28.47;;;16.90;;
8458;SDS011;4266;48.816;9.154;2023-02-16T05:30:18;24.63;;;15.67;;
8458;SDS011;4266;48.816;9.154;2023-02-16T05:32:44;23.77;;;16.53;;
8458;SDS011;4266;48.816;9.154;2023-02-16T05:35:10;24.33;;;17.43;;
8458;SDS011;4266;48.816;9.154;2023-02-16T05:37:36;24.23;;;16.77;;
8458;SDS011;4266;48.816;9.154;2023-02-16T05:40:03;26.13;;;18.10;;
8458;SDS011;4266;48.816;9.154;2023-02-16T05:42:29;22.33;;;17.27;;
8458;SDS011;4266;48.816;9.154;2023-02-16T05:44:55;22.23;;;17.43;;
8458;SDS011;4266;48.816;9.154;2023-02-16T05:47:21;26.50;;;17.23;;
8458;SDS011;4266;48.816;9.154;2023-02-16T05:49:46;26.17;;;18.40;;
8458;SDS011;4266;48.816;9.154;2023-02-16T05:52:12;22.67;;;17.27;;
8458;SDS011;4266;48.816;9.154;2023-02-16T05:54:38;26.83;;;17.27;;
8458;SDS011;4266;48.816;9.154;2023-02-16T05:57:04;21.20;;;17.40;;
8458;SDS011;4266;48.816;9.154;2023-02-16T05:59:29;25.37;;;16.40;;
8458;SDS011;4266;48.816;9.154;2023-02-16T06:01:55;26.07;;;17.50;;
8458;SDS011;4266;48.816;9.154;2023-02-16T06:04:21;24.67;;;17.40;;
8458;SDS011;4266;48.816;9.154;2023-02-16T06:06:47;25.53;;;16.77;;
8458;SDS011;4266;48.816;9.154;2023-02-16T06:09:12;26.17;;;17.07;;
8458;SDS011;4266;48.816;9.154;2023-02-16T06:11:38;23.43;;;16.33;;
8458;SDS011;4266;48.816;9.154;2023-02-16T06:14:05;24.50;;;18.37;;
8458;SDS011;4266;48.816;9.154;2023-02-16T06:16:29;23.53;;;17.90;;
8458;SDS011;4266;48.816;9.154;2023-02-16T06:18:55;24.03;;;17.33;;
8458;SDS011;4266;48.816;9.154;2023-02-16T06:21:21;23.47;;;17.53;;
8458;SDS011;4266;48.816;9.154;2023-02-16T06:23:46;26.50;;;17.47;;
8458;SDS011;4266;48.816;9.154;2023-02-16T06:26:12;26.67;;;17.47;;
8458;SDS011;4266;48.816;9.154;2023-02-16T06:28:38;24.63;;;17.27;;
8458;SDS011;4266;48.816;9.154;2023-02-16T06:31:04;25.67;;;17.33;;
8458;SDS011;4266;48.816;9.154;2023-02-16T06:33:29;23.07;;;17.00;;
8458;SDS011;4266;48.816;9.154;2023-02-16T06:35:55;21.10;;;16.97;;
8458;SDS011;4266;48.816;9.154;2023-02-16T06:38:21;28.23;;;17.60;;
8458;SDS011;4266;48.816;9.154;2023-02-16T06:40:46;25.57;;;18.20;;
8458;SDS011;4266;48.816;9.154;2023-02-16T06:43:12;22.57;;;16.63;;
8458;SDS011;4266;48.816;9.154;2023-02-16T06:45:38;25.03;;;17.83;;
8458;SDS011;4266;48.816;9.154;2023-02-16T06:48:04;25.70;;;16.90;;
8458;SDS011;4266;48.816;9.154;2023-02-16T06:50:30;24.63;;;17.67;;
8458;SDS011;4266;48.816;9.154;2023-02-16T06:52:56;29.97;;;16.77;;
8458;SDS011;4266;48.816;9.154;2023-02-16T06:55:22;20.93;;;16.67;;
8458;SDS011;4266;48.816;9.154;2023-02-16T06:57:48;22.97;;;17.10;;
8458;SDS011;4266;48.816;9.154;2023-02-16T07:00:14;26.83;;;18.10;;
8458;SDS011;4266;48.816;9.154;2023-02-16T07:02:41;21.67;;;14.87;;
8458;SDS011;4266;48.816;9.154;2023-02-16T07:05:07;22.37;;;16.20;;
8458;SDS011;4266;48.816;9.154;2023-02-16T07:07:33;20.87;;;15.40;;
8458;SDS011;4266;48.816;9.154;2023-02-16T07:09:59;20.37;;;14.90;;
8458;SDS011;4266;48.816;9.154;2023-02-16T07:12:24;21.23;;;16.27;;
8458;SDS011;4266;48.816;9.154;2023-02-16T07:14:51;21.47;;;15.77;;
8458;SDS011;4266;48.816;9.154;2023-02-16T07:17:16;19.43;;;14.40;;
8458;SDS011;4266;48.816;9.154;2023-02-16T07:19:42;18.37;;;13.77;;
8458;SDS011;4266;48.816;9.154;2023-02-16T07:22:08;19.03;;;13.70;;
8458;SDS011;4266;48.816;9.154;2023-02-16T07:24:34;20.17;;;14.40;;
8458;SDS011;4266;48.816;9.154;2023-02-16T07:26:59;20.20;;;13.97;;
8458;SDS011;4266;48.816;9.154;2023-02-16T07:29:26;21.17;;;13.17;;
8458;SDS011;4266;48.816;9.154;2023-02-16T07:31:51;14.83;;;13.20;;
8458;SDS011;4266;48.816;9.154;2023-02-16T07:34:17;16.23;;;12.87;;
8458;SDS011;4266;48.816;9.154;2023-02-16T07:36:43;14.03;;;12.57;;
8458;SDS011;4266;48.816;9.154;2023-02-16T07:39:09;14.00;;;12.50;;
8458;SDS011;4266;48.816;9.154;2023-02-16T07:41:34;13.40;;;12.03;;
8458;SDS011;4266;48.816;9.154;2023-02-16T07:44:02;14.67;;;12.07;;
8458;SDS011;4266;48.816;9.154;2023-02-16T07:46:26;13.40;;;12.10;;
8458;SDS011;4266;48.816;9.154;2023-02-16T07:48:52;15.30;;;13.00;;
8458;SDS011;4266;48.816;9.154;2023-02-16T07:51:23;17.03;;;12.97;;
8458;SDS011;4266;48.816;9.154;2023-02-16T07:53:48;15.17;;;12.97;;
8458;SDS011;4266;48.816;9.154;2023-02-16T07:56:21;15.60;;;12.90;;
8458;SDS011;4266;48.816;9.154;2023-02-16T07:58:46;15.57;;;13.83;;
8458;SDS011;4266;48.816;9.154;2023-02-16T08:01:12;15.20;;;13.57;;
8458;SDS011;4266;48.816;9.154;2023-02-16T08:03:37;16.23;;;14.30;;
8458;SDS011;4266;48.816;9.154;2023-02-16T08:06:03;15.53;;;13.50;;
8458;SDS011;4266;48.816;9.154;2023-02-16T08:08:30;15.80;;;14.13;;
8458;SDS011;4266;48.816;9.154;2023-02-16T08:10:56;19.40;;;14.80;;
8458;SDS011;4266;48.816;9.154;2023-02-16T08:13:22;17.17;;;14.77;;
8458;SDS011;4266;48.816;9.154;2023-02-16T08:15:47;17.48;;;14.93;;
8458;SDS011;4266;48.816;9.154;2023-02-16T08:18:13;22.55;;;14.80;;
8458;SDS011;4266;48.816;9.154;2023-02-16T08:20:39;20.60;;;14.90;;
8458;SDS011;4266;48.816;9.154;2023-02-16T08:23:04;23.25;;;14.57;;
8458;SDS011;4266;48.816;9.154;2023-02-16T08:25:32;17.00;;;15.20;;
8458;SDS011;4266;48.816;9.154;2023-02-16T08:27:57;16.65;;;14.95;;
8458;SDS011;4266;48.816;9.154;2023-02-16T08:30:24;22.00;;;14.60;;
8458;SDS011;4266;48.816;9.154;2023-02-16T08:32:50;18.40;;;15.35;;
8458;SDS011;4266;48.816;9.154;2023-02-16T08:35:15;17.73;;;14.75;;
8458;SDS011;4266;48.816;9.154;2023-02-16T08:37:41;19.80;;;15.38;;
8458;SDS011;4266;48.816;9.154;2023-02-16T08:40:07;18.40;;;14.40;;
8458;SDS011;4266;48.816;9.154;2023-02-16T08:42:33;20.92;;;15.40;;
8458;SDS011;4266;48.816;9.154;2023-02-16T08:44:59;24.73;;;15.82;;
8458;SDS011;4266;48.816;9.154;2023-02-16T08:47:24;19.62;;;15.15;;
8458;SDS011;4266;48.816;9.154;2023-02-16T08:49:50;17.12;;;15.35;;
8458;SDS011;4266;48.816;9.154;2023-02-16T08:52:16;16.65;;;14.93;;
8458;SDS011;4266;48.816;9.154;2023-02-16T08:54:41;16.90;;;14.93;;
8458;SDS011;4266;48.816;9.154;2023-02-16T08:57:07;17.30;;;14.15;;
8458;SDS011;4266;48.816;9.154;2023-02-16T08:59:33;15.25;;;13.75;;
8458;SDS011;4266;48.816;9.154;2023-02-16T09:01:58;19.15;;;14.02;;
8458;SDS011;4266;48.816;9.154;2023-02-16T09:04:25;16.30;;;14.45;;
8458;SDS011;4266;48.816;9.154;2023-02-16T09:06:51;17.87;;;14.82;;
8458;SDS011;4266;48.816;9.154;2023-02-16T09:09:16;16.37;;;14.40;;
8458;SDS011;4266;48.816;9.154;2023-02-16T09:11:42;16.08;;;14.27;;
8458;SDS011;4266;48.816;9.154;2023-02-16T09:14:08;15.25;;;13.75;;
8458;SDS011;4266;48.816;9.154;2023-02-16T09:16:33;16.40;;;14.02;;
8458;SDS011;4266;48.816;9.154;2023-02-16T09:18:59;20.05;;;13.95;;
8458;SDS011;4266;48.816;9.154;2023-02-16T09:21:26;16.10;;;13.82;;
8458;SDS011;4266;48.816;9.154;2023-02-16T09:23:52;20.30;;;13.40;;
8458;SDS011;4266;48.816;9.154;2023-02-16T09:26:17;18.02;;;14.65;;
8458;SDS011;4266;48.816;9.154;2023-02-16T09:28:43;17.35;;;14.63;;
8458;SDS011;4266;48.816;9.154;2023-02-16T09:31:13;20.25;;;15.02;;
8458;SDS011;4266;48.816;9.154;2023-02-16T09:33:39;21.42;;;16.00;;
8458;SDS011;4266;48.816;9.154;2023-02-16T09:36:06;15.75;;;14.02;;
8458;SDS011;4266;48.816;9.154;2023-02-16T09:38:32;18.73;;;13.57;;
8458;SDS011;4266;48.816;9.154;2023-02-16T09:40:57;17.10;;;13.55;;
8458;SDS011;4266;48.816;9.154;2023-02-16T09:43:33;17.33;;;13.62;;
8458;SDS011;4266;48.816;9.154;2023-02-16T09:45:54;16.52;;;13.45;;
8458;SDS011;4266;48.816;9.154;2023-02-16T09:48:23;15.75;;;13.20;;
8458;SDS011;4266;48.816;9.154;2023-02-16T09:50:46;15.20;;;12.55;;
8458;SDS011;4266;48.816;9.154;2023-02-16T09:53:14;22.27;;;12.98;;
8458;SDS011;4266;48.816;9.154;2023-02-16T09:55:40;21.27;;;13.45;;
8458;SDS011;4266;48.816;9.154;2023-02-16T09:58:05;16.17;;;12.25;;
8458;SDS011;4266;48.816;9.154;2023-02-16T10:00:36;12.48;;;11.15;;
8458;SDS011;4266;48.816;9.154;2023-02-16T10:03:18;9.95;;;8.90;;
8458;SDS011;4266;48.816;9.154;2023-02-16T10:05:45;9.38;;;8.48;;
8458;SDS011;4266;48.816;9.154;2023-02-16T10:08:14;8.77;;;8.00;;
8458;SDS011;4266;48.816;9.154;2023-02-16T10:10:49;8.60;;;7.82;;
8458;SDS011;4266;48.816;9.154;2023-02-16T10:13:27;9.05;;;8.15;;
8458;SDS011;4266;48.816;9.154;2023-02-16T10:15:51;9.60;;;8.65;;
8458;SDS011;4266;48.816;9.154;2023-02-16T10:18:22;9.07;;;8.27;;
8458;SDS011;4266;48.816;9.154;2023-02-16T10:20:49;8.85;;;8.13;;
8458;SDS011;4266;48.816;9.154;2023-02-16T10:23:51;8.65;;;7.80;;
8458;SDS011;4266;48.816;9.154;2023-02-16T10:26:16;11.05;;;7.97;;
8458;SDS011;4266;48.816;9.154;2023-02-16T10:28:44;19.87;;;9.73;;
8458;SDS011;4266;48.816;9.154;2023-02-16T10:31:11;14.45;;;8.10;;
8458;SDS011;4266;48.816;9.154;2023-02-16T10:33:38;13.90;;;12.45;;
8458;SDS011;4266;48.816;9.154;2023-02-16T10:36:13;16.58;;;11.15;;
8458;SDS011;4266;48.816;9.154;2023-02-16T10:38:41;16.95;;;12.60;;
8458;SDS011;4266;48.816;9.154;2023-02-16T10:41:12;16.27;;;12.45;;
8458;SDS011;4266;48.816;9.154;2023-02-16T10:43:44;22.25;;;10.90;;
8458;SDS011;4266;48.816;9.154;2023-02-16T10:46:09;11.30;;;7.72;;
8458;SDS011;4266;48.816;9.154;2023-02-16T10:48:34;8.57;;;7.05;;
8458;SDS011;4266;48.816;9.154;2023-02-16T10:51:00;8.55;;;7.47;;
8458;SDS011;4266;48.816;9.154;2023-02-16T10:53:38;11.55;;;9.75;;
8458;SDS011;4266;48.816;9.154;2023-02-16T10:58:44;16.10;;;12.23;;
8458;SDS011;4266;48.816;9.154;2023-02-16T11:01:13;19.98;;;12.02;;
8458;SDS011;4266;48.816;9.154;2023-02-16T11:03:42;12.80;;;11.35;;
8458;SDS011;4266;48.816;9.154;2023-02-16T11:06:11;18.20;;;15.82;;
8458;SDS011;4266;48.816;9.154;2023-02-16T11:08:45;15.25;;;9.57;;
8458;SDS011;4266;48.816;9.154;2023-02-16T11:11:11;10.23;;;8.73;;
8458;SDS011;4266;48.816;9.154;2023-02-16T11:13:37;12.65;;;8.98;;
8458;SDS011;4266;48.816;9.154;2023-02-16T11:16:04;11.50;;;9.50;;
8458;SDS011;4266;48.816;9.154;2023-02-16T11:18:40;18.20;;;11.15;;
8458;SDS011;4266;48.816;9.154;2023-02-16T11:21:05;16.40;;;9.70;;
8458;SDS011;4266;48.816;9.154;2023-02-16T11:23:31;15.70;;;11.65;;
8458;SDS011;4266;48.816;9.154;2023-02-16T11:28:53;21.15;;;11.48;;
8458;SDS011;4266;48.816;9.154;2023-02-16T11:31:36;17.17;;;12.07;;
8458;SDS011;4266;48.816;9.154;2023-02-16T11:34:02;13.88;;;10.68;;
8458;SDS011;4266;48.816;9.154;2023-02-16T11:36:28;15.38;;;11.20;;
8458;SDS011;4266;48.816;9.154;2023-02-16T11:38:55;15.30;;;11.57;;
8458;SDS011;4266;48.816;9.154;2023-02-16T11:41:21;16.25;;;11.07;;
8458;SDS011;4266;48.816;9.154;2023-02-16T11:43:47;13.45;;;11.73;;
8458;SDS011;4266;48.816;9.154;2023-02-16T11:46:16;12.02;;;10.82;;
8458;SDS011;4266;48.816;9.154;2023-02-16T11:48:39;15.23;;;10.23;;
8458;SDS011;4266;48.816;9.154;2023-02-16T11:51:06;29.15;;;11.20;;
8458;SDS011;4266;48.816;9.154;2023-02-16T11:53:32;13.43;;;9.15;;
8458;SDS011;4266;48.816;9.154;2023-02-16T11:58:38;11.88;;;9.70;;
8458;SDS011;4266;48.816;9.154;2023-02-16T12:01:07;14.40;;;10.30;;
8458;SDS011;4266;48.816;9.154;2023-02-16T12:03:42;15.55;;;10.27;;
8458;SDS011;4266;48.816;9.154;2023-02-16T12:09:12;9.75;;;7.68;;
8458;SDS011;4266;48.816;9.154;2023-02-16T12:11:42;11.45;;;7.95;;
8458;SDS011;4266;48.816;9.154;2023-02-16T12:17:24;9.20;;;7.40;;
8458;SDS011;4266;48.816;9.154;2023-02-16T12:22:23;10.15;;;9.25;;
8458;SDS011;4266;48.816;9.154;2023-02-16T12:24:57;7.70;;;7.00;;
8458;SDS011;4266;48.816;9.154;2023-02-16T12:27:32;7.30;;;6.60;;
8458;SDS011;4266;48.816;9.154;2023-02-16T12:30:16;8.45;;;6.47;;
8458;SDS011;4266;48.816;9.154;2023-02-16T12:35:37;6.70;;;6.10;;
8458;SDS011;4266;48.816;9.154;2023-02-16T12:38:33;7.80;;;7.05;;
8458;SDS011;4266;48.816;9.154;2023-02-16T12:40:52;7.72;;;6.43;;
8458;SDS011;4266;48.816;9.154;2023-02-16T12:43:24;9.68;;;6.40;;
8458;SDS011;4266;48.816;9.154;2023-02-16T12:45:46;14.75;;;7.78;;
8458;SDS011;4266;48.816;9.154;2023-02-16T12:48:31;12.18;;;7.68;;
8458;SDS011;4266;48.816;9.154;2023-02-16T12:51:13;9.43;;;7.55;;
8458;SDS011;4266;48.816;9.154;2023-02-16T12:53:41;13.32;;;6.97;;
8458;SDS011;4266;48.816;9.154;2023-02-16T12:56:08;9.00;;;6.97;;
8458;SDS011;4266;48.816;9.154;2023-02-16T12:58:35;10.70;;;7.03;;
8458;SDS011;4266;48.816;9.154;2023-02-16T13:01:02;7.10;;;6.45;;
8458;SDS011;4266;48.816;9.154;2023-02-16T13:03:28;7.80;;;6.95;;
8458;SDS011;4266;48.816;9.154;2023-02-16T13:06:06;8.35;;;7.55;;
8458;SDS011;4266;48.816;9.154;2023-02-16T13:08:38;8.20;;;7.35;;
8458;SDS011;4266;48.816;9.154;2023-02-16T13:11:03;7.95;;;7.15;;
8458;SDS011;4266;48.816;9.154;2023-02-16T13:13:30;11.82;;;7.62;;
8458;SDS011;4266;48.816;9.154;2023-02-16T13:16:00;8.30;;;7.50;;
8458;SDS011;4266;48.816;9.154;2023-02-16T13:18:24;7.05;;;6.43;;
8458;SDS011;4266;48.816;9.154;2023-02-16T13:20:51;10.63;;;7.70;;
8458;SDS011;4266;48.816;9.154;2023-02-16T13:34:36;7.87;;;6.85;;
8458;SDS011;4266;48.816;9.154;2023-02-16T13:43:00;12.48;;;8.32;;
8458;SDS011;4266;48.816;9.154;2023-02-16T13:45:41;12.07;;;7.68;;
8458;SDS011;4266;48.816;9.154;2023-02-16T13:48:12;16.12;;;8.13;;
8458;SDS011;4266;48.816;9.154;2023-02-16T13:50:37;9.18;;;8.13;;
8458;SDS011;4266;48.816;9.154;2023-02-16T13:53:10;9.32;;;8.35;;
8458;SDS011;4266;48.816;9.154;2023-02-16T13:55:37;8.93;;;8.13;;
8458;SDS011;4266;48.816;9.154;2023-02-16T13:58:03;10.73;;;9.10;;
8458;SDS011;4266;48.816;9.154;2023-02-16T14:00:34;9.35;;;8.45;;
8458;SDS011;4266;48.816;9.154;2023-02-16T14:03:00;11.23;;;9.45;;
8458;SDS011;4266;48.816;9.154;2023-02-16T14:05:28;10.63;;;9.07;;
8458;SDS011;4266;48.816;9.154;2023-02-16T14:11:04;9.85;;;8.85;;
8458;SDS011;4266;48.816;9.154;2023-02-16T14:13:43;11.00;;;8.85;;
8458;SDS011;4266;48.816;9.154;2023-02-16T14:16:28;17.52;;;9.57;;
8458;SDS011;4266;48.816;9.154;2023-02-16T14:19:00;12.65;;;9.00;;
8458;SDS011;4266;48.816;9.154;2023-02-16T14:21:35;9.05;;;8.15;;
8458;SDS011;4266;48.816;9.154;2023-02-16T14:24:03;12.23;;;8.27;;
8458;SDS011;4266;48.816;9.154;2023-02-16T14:26:30;9.02;;;8.13;;
8458;SDS011;4266;48.816;9.154;2023-02-16T14:29:01;9.07;;;7.70;;
8458;SDS011;4266;48.816;9.154;2023-02-16T14:31:26;12.98;;;8.38;;
8458;SDS011;4266;48.816;9.154;2023-02-16T14:33:59;9.73;;;7.90;;
8458;SDS011;4266;48.816;9.154;2023-02-16T14:36:20;9.90;;;7.78;;
8458;SDS011;4266;48.816;9.154;2023-02-16T14:38:47;10.80;;;7.53;;
8458;SDS011;4266;48.816;9.154;2023-02-16T14:43:51;15.45;;;7.85;;
8458;SDS011;4266;48.816;9.154;2023-02-16T14:46:29;12.30;;;8.95;;
8458;SDS011;4266;48.816;9.154;2023-02-16T14:49:12;11.07;;;9.13;;
8458;SDS011;4266;48.816;9.154;2023-02-16T14:52:09;11.32;;;8.93;;
8458;SDS011;4266;48.816;9.154;2023-02-16T14:55:09;11.12;;;7.45;;
8458;SDS011;4266;48.816;9.154;2023-02-16T14:57:54;18.25;;;8.60;;
8458;SDS011;4266;48.816;9.154;2023-02-16T15:00:26;10.55;;;7.15;;
8458;SDS011;4266;48.816;9.154;2023-02-16T15:02:57;22.55;;;11.35;;
8458;SDS011;4266;48.816;9.154;2023-02-16T15:05:24;13.85;;;10.45;;
8458;SDS011;4266;48.816;9.154;2023-02-16T15:07:50;13.02;;;10.88;;
8458;SDS011;4266;48.816;9.154;2023-02-16T15:10:14;15.43;;;10.35;;
8458;SDS011;4266;48.816;9.154;2023-02-16T15:12:39;17.45;;;11.10;;
8458;SDS011;4266;48.816;9.154;2023-02-16T15:15:05;14.50;;;10.95;;
8458;SDS011;4266;48.816;9.154;2023-02-16T15:17:33;24.55;;;10.82;;
8458;SDS011;4266;48.816;9.154;2023-02-16T15:20:05;20.33;;;9.67;;
8458;SDS011;4266;48.816;9.154;2023-02-16T15:22:32;12.00;;;9.30;;
8458;SDS011;4266;48.816;9.154;2023-02-16T15:24:59;12.50;;;7.40;;
8458;SDS011;4266;48.816;9.154;2023-02-16T15:27:25;13.93;;;8.40;;
8458;SDS011;4266;48.816;9.154;2023-02-16T15:32:47;8.10;;;6.37;;
8458;SDS011;4266;48.816;9.154;2023-02-16T15:35:08;10.13;;;8.20;;
8458;SDS011;4266;48.816;9.154;2023-02-16T15:37:33;11.30;;;9.03;;
8458;SDS011;4266;48.816;9.154;2023-02-16T15:42:35;10.57;;;8.27;;
8458;SDS011;4266;48.816;9.154;2023-02-16T15:45:01;15.87;;;8.80;;
8458;SDS011;4266;48.816;9.154;2023-02-16T15:47:26;12.60;;;8.93;;
8458;SDS011;4266;48.816;9.154;2023-02-16T15:49:52;8.13;;;6.33;;
8458;SDS011;4266;48.816;9.154;2023-02-16T15:52:21;6.73;;;6.00;;
8458;SDS011;4266;48.816;9.154;2023-02-16T15:54:45;5.70;;;5.20;;
8458;SDS011;4266;48.816;9.154;2023-02-16T15:57:20;6.43;;;3.93;;
8458;SDS011;4266;48.816;9.154;2023-02-16T15:59:45;3.87;;;3.50;;